Time;durP1;ratioP1;P1;durP2;ratioP2;P2;SDS_P1;SDS_P2;PMS_P1;PMS_P2;Temp;Humidity;BMP_temperature;BMP_pressure;BME280_temperature;BME280_humidity;BME280_pressure;Samples;Min_cycle;Max_cycle;Signal;HPM_P1;HPM_P2
2023/06/21 00:02:03;;;;;;;9.35;7.07;;;;;;;;;;4982331;28;20042;-74
2023/06/21 00:04:34;;;;;;;16.90;7.43;;;;;;;;;;4985262;28;20969;-73
2023/06/21 00:07:07;;;;;;;14.70;8.38;;;;;;;;;;4970212;28;20417;-73
2023/06/21 00:09:37;;;;;;;10.13;7.57;;;;;;;;;;4986306;28;20046;-73
2023/06/21 00:12:11;;;;;;;11.32;7.07;;;;;;;;;;4987235;28;20911;-73
2023/06/21 00:14:41;;;;;;;16.17;7.13;;;;;;;;;;4986853;28;20057;-73
2023/06/21 00:17:11;;;;;;;16.88;6.35;;;;;;;;;;4986875;28;20051;-73
2023/06/21 00:19:41;;;;;;;18.63;7.50;;;;;;;;;;4987392;28;20042;-73
2023/06/21 00:22:12;;;;;;;9.93;6.65;;;;;;;;;;4987055;28;20053;-73
2023/06/21 00:24:42;;;;;;;14.02;6.72;;;;;;;;;;4986503;28;20523;-74
2023/06/21 00:27:13;;;;;;;14.85;7.60;;;;;;;;;;4982218;28;20054;-73
2023/06/21 00:29:43;;;;;;;13.52;7.80;;;;;;;;;;4953079;28;20062;-74
2023/06/21 00:32:13;;;;;;;12.38;8.68;;;;;;;;;;4984210;28;20038;-74
2023/06/21 00:34:46;;;;;;;16.35;9.05;;;;;;;;;;4985105;28;20030;-75
2023/06/21 00:37:17;;;;;;;15.32;9.38;;;;;;;;;;4966342;28;20050;-74
2023/06/21 00:39:48;;;;;;;18.88;10.60;;;;;;;;;;4985807;28;20536;-73
2023/06/21 00:42:18;;;;;;;15.63;9.45;;;;;;;;;;4985876;28;20745;-73
2023/06/21 00:44:50;;;;;;;13.07;8.85;;;;;;;;;;4986678;28;20054;-74
2023/06/21 00:47:22;;;;;;;18.65;9.80;;;;;;;;;;4986851;28;20047;-74
2023/06/21 00:49:52;;;;;;;21.63;9.80;;;;;;;;;;4986457;28;20528;-74
2023/06/21 00:52:23;;;;;;;17.48;10.48;;;;;;;;;;4968945;28;20050;-74
2023/06/21 00:54:54;;;;;;;15.25;9.48;;;;;;;;;;4985739;28;20046;-74
2023/06/21 00:57:26;;;;;;;14.18;8.90;;;;;;;;;;4966896;28;20057;-74
2023/06/21 00:59:56;;;;;;;13.10;8.82;;;;;;;;;;4986238;28;20051;-74
2023/06/21 01:02:27;;;;;;;14.45;8.43;;;;;;;;;;4986593;28;20050;-74
2023/06/21 01:04:58;;;;;;;14.27;8.23;;;;;;;;;;4985952;28;20061;-74
2023/06/21 01:08:00;;;;;;;14.30;8.55;;;;;;;;;;4967556;28;20513;-74
2023/06/21 01:11:14;;;;;;;14.02;8.30;;;;;;;;;;4968080;28;20061;-75
2023/06/21 01:14:06;;;;;;;10.15;7.53;;;;;;;;;;4953414;28;20050;-74
2023/06/21 01:16:44;;;;;;;13.57;8.73;;;;;;;;;;4968127;28;20078;-74
2023/06/21 01:19:51;;;;;;;13.75;8.75;;;;;;;;;;4987100;28;20054;-73
2023/06/21 01:22:22;;;;;;;16.20;9.70;;;;;;;;;;4967662;28;20054;-74
2023/06/21 01:25:29;;;;;;;16.48;9.18;;;;;;;;;;4968490;28;20065;-74
2023/06/21 01:28:37;;;;;;;12.20;8.57;;;;;;;;;;4967859;28;20058;-74
2023/06/21 01:31:15;;;;;;;13.10;8.95;;;;;;;;;;4986556;28;20050;-73
2023/06/21 01:33:47;;;;;;;14.05;8.77;;;;;;;;;;4986322;28;20039;-73
2023/06/21 01:36:19;;;;;;;16.55;9.57;;;;;;;;;;4968547;28;20064;-73
2023/06/21 01:38:56;;;;;;;15.55;9.52;;;;;;;;;;4986597;28;20046;-72
2023/06/21 01:41:28;;;;;;;15.10;8.60;;;;;;;;;;4968259;28;20065;-73
2023/06/21 01:43:59;;;;;;;18.60;9.38;;;;;;;;;;4986056;28;20057;-73
2023/06/21 01:46:31;;;;;;;14.77;8.93;;;;;;;;;;4967857;28;20050;-73
2023/06/21 01:49:06;;;;;;;12.05;8.63;;;;;;;;;;4967851;28;20046;-72
2023/06/21 01:51:40;;;;;;;14.35;9.52;;;;;;;;;;4968368;28;20425;-73
2023/06/21 01:54:11;;;;;;;16.85;9.20;;;;;;;;;;4986227;28;20050;-72
2023/06/21 01:56:45;;;;;;;16.92;9.57;;;;;;;;;;4967766;28;20057;-73
2023/06/21 01:59:18;;;;;;;12.95;8.43;;;;;;;;;;4967724;28;20765;-72
2023/06/21 02:01:50;;;;;;;20.35;9.68;;;;;;;;;;4968309;28;20057;-73
2023/06/21 02:04:21;;;;;;;15.70;9.73;;;;;;;;;;4985872;28;20416;-73
2023/06/21 02:06:54;;;;;;;13.57;8.15;;;;;;;;;;4986147;28;20057;-78
2023/06/21 02:09:25;;;;;;;13.82;8.70;;;;;;;;;;4985846;28;20046;-77
2023/06/21 02:11:56;;;;;;;13.95;8.35;;;;;;;;;;4985995;28;20065;-72
2023/06/21 02:14:28;;;;;;;14.80;9.02;;;;;;;;;;4967763;28;20514;-73
2023/06/21 02:16:59;;;;;;;15.68;9.73;;;;;;;;;;4967509;28;20406;-73
2023/06/21 02:19:28;;;;;;;12.35;7.95;;;;;;;;;;4967798;28;20062;-73
2023/06/21 02:21:59;;;;;;;12.95;8.60;;;;;;;;;;4986190;28;20514;-73
2023/06/21 02:24:30;;;;;;;14.60;8.38;;;;;;;;;;4985584;28;20053;-72
2023/06/21 02:27:00;;;;;;;16.13;8.93;;;;;;;;;;4968063;28;20062;-73
2023/06/21 02:29:30;;;;;;;17.05;9.13;;;;;;;;;;4967708;28;20069;-73
2023/06/21 02:32:02;;;;;;;14.85;9.38;;;;;;;;;;4967300;28;20073;-74
2023/06/21 02:34:32;;;;;;;13.70;9.05;;;;;;;;;;4967423;28;20050;-73
2023/06/21 02:37:11;;;;;;;11.60;7.90;;;;;;;;;;4985532;28;20532;-73
2023/06/21 02:39:44;;;;;;;13.00;7.70;;;;;;;;;;4967870;28;20054;-72
2023/06/21 02:42:17;;;;;;;11.52;7.88;;;;;;;;;;4967703;28;20054;-74
2023/06/21 02:44:47;;;;;;;11.25;7.85;;;;;;;;;;4985731;28;20050;-73
2023/06/21 02:47:17;;;;;;;17.05;8.68;;;;;;;;;;4985620;28;20046;-73
2023/06/21 02:49:49;;;;;;;12.20;7.80;;;;;;;;;;4985621;28;20061;-72
2023/06/21 02:52:19;;;;;;;11.25;8.27;;;;;;;;;;4985420;28;20692;-73
2023/06/21 02:54:52;;;;;;;12.45;7.00;;;;;;;;;;4984469;28;20150;-72
2023/06/21 02:57:24;;;;;;;9.90;7.30;;;;;;;;;;4967454;28;20057;-73
2023/06/21 02:59:59;;;;;;;10.15;7.05;;;;;;;;;;4989835;28;20042;-73
2023/06/21 03:02:38;;;;;;;10.25;7.00;;;;;;;;;;4989855;28;20053;-73
2023/06/21 03:05:11;;;;;;;9.80;7.00;;;;;;;;;;4970993;28;20058;-72
2023/06/21 03:07:43;;;;;;;9.85;7.00;;;;;;;;;;4989071;28;20555;-73
2023/06/21 03:10:15;;;;;;;11.88;7.70;;;;;;;;;;4971089;28;20051;-73
2023/06/21 03:12:45;;;;;;;12.73;6.95;;;;;;;;;;4971171;28;20050;-72
2023/06/21 03:15:19;;;;;;;10.82;7.55;;;;;;;;;;4971013;28;20425;-73
2023/06/21 03:17:51;;;;;;;12.20;7.88;;;;;;;;;;4970633;28;20528;-73
2023/06/21 03:20:24;;;;;;;12.48;7.85;;;;;;;;;;4970912;28;20046;-74
2023/06/21 03:22:55;;;;;;;12.05;8.60;;;;;;;;;;4970551;28;20541;-73
2023/06/21 03:25:29;;;;;;;17.08;7.93;;;;;;;;;;4988939;28;20402;-74
2023/06/21 03:28:00;;;;;;;17.10;7.82;;;;;;;;;;4970722;28;20061;-74
2023/06/21 03:30:31;;;;;;;11.80;7.57;;;;;;;;;;4987719;28;20085;-74
2023/06/21 03:33:02;;;;;;;15.80;8.30;;;;;;;;;;4970961;28;20472;-73
2023/06/21 03:35:33;;;;;;;13.13;7.63;;;;;;;;;;4970920;28;20054;-73
2023/06/21 03:38:05;;;;;;;13.60;6.85;;;;;;;;;;4988678;28;20481;-74
2023/06/21 03:40:40;;;;;;;10.35;6.63;;;;;;;;;;4970274;28;20081;-74
2023/06/21 03:43:11;;;;;;;12.15;6.53;;;;;;;;;;4969955;28;20054;-74
2023/06/21 03:45:43;;;;;;;12.43;7.00;;;;;;;;;;4970263;28;20054;-73
2023/06/21 03:48:15;;;;;;;9.75;5.70;;;;;;;;;;4988206;28;20053;-74
2023/06/21 03:50:46;;;;;;;8.43;5.40;;;;;;;;;;4988691;28;20046;-74
2023/06/21 03:53:17;;;;;;;12.07;6.03;;;;;;;;;;4988082;28;20050;-74
2023/06/21 03:55:47;;;;;;;8.00;5.70;;;;;;;;;;4969833;28;20414;-74
2023/06/21 03:58:17;;;;;;;7.88;5.43;;;;;;;;;;4987916;28;20050;-74
2023/06/21 04:00:48;;;;;;;8.68;5.82;;;;;;;;;;4970152;28;20042;-74
2023/06/21 04:03:19;;;;;;;11.50;6.30;;;;;;;;;;4971361;28;20413;-74
2023/06/21 04:05:49;;;;;;;10.05;6.30;;;;;;;;;;4970328;28;20058;-73
2023/06/21 04:08:20;;;;;;;8.98;5.72;;;;;;;;;;4988271;28;20054;-74
2023/06/21 04:10:52;;;;;;;9.57;6.38;;;;;;;;;;4969713;28;20544;-73
2023/06/21 04:13:24;;;;;;;10.88;6.68;;;;;;;;;;4969881;28;20453;-74
2023/06/21 04:15:55;;;;;;;10.25;5.43;;;;;;;;;;4988509;28;20049;-73
2023/06/21 04:18:24;;;;;;;;;;;;;;;;;;4988224;28;20065;-74
2023/06/21 04:20:54;;;;;;;8.32;5.72;;;;;;;;;;4987695;28;19926;-74
2023/06/21 04:23:26;;;;;;;8.82;6.38;;;;;;;;;;4955126;28;20059;-73
2023/06/21 04:25:58;;;;;;;13.35;6.32;;;;;;;;;;4987790;28;20409;-73
2023/06/21 04:28:29;;;;;;;10.70;5.88;;;;;;;;;;4968972;28;20054;-73
2023/06/21 04:31:00;;;;;;;9.02;5.97;;;;;;;;;;4969778;28;20054;-74
2023/06/21 04:33:31;;;;;;;11.07;6.55;;;;;;;;;;4987722;28;20146;-74
2023/06/21 04:36:01;;;;;;;8.68;5.63;;;;;;;;;;4986944;28;20576;-74
2023/06/21 04:38:33;;;;;;;11.52;6.15;;;;;;;;;;4970619;28;20054;-73
2023/06/21 04:41:04;;;;;;;11.90;6.47;;;;;;;;;;4987553;28;20057;-74
2023/06/21 04:43:35;;;;;;;12.23;7.70;;;;;;;;;;4970355;28;20050;-74
2023/06/21 04:46:06;;;;;;;10.57;6.15;;;;;;;;;;4987792;28;20053;-74
2023/06/21 04:48:37;;;;;;;10.55;6.93;;;;;;;;;;4969611;28;20417;-74
2023/06/21 04:51:07;;;;;;;7.70;5.90;;;;;;;;;;4987027;28;20046;-73
2023/06/21 04:53:38;;;;;;;11.13;6.50;;;;;;;;;;4987157;28;20055;-73
2023/06/21 04:56:13;;;;;;;9.20;5.30;;;;;;;;;;4987388;28;20042;-74
2023/06/21 04:58:43;;;;;;;11.32;6.15;;;;;;;;;;4986706;28;20053;-73
2023/06/21 05:01:13;;;;;;;16.67;6.65;;;;;;;;;;4987033;28;20054;-74
2023/06/21 05:03:52;;;;;;;9.25;6.32;;;;;;;;;;4986960;28;20409;-74
2023/06/21 05:06:25;;;;;;;10.85;6.95;;;;;;;;;;4986647;28;20077;-74
2023/06/21 05:08:56;;;;;;;10.63;6.38;;;;;;;;;;4987055;28;20049;-74
2023/06/21 05:11:26;;;;;;;9.02;6.05;;;;;;;;;;4987068;28;20046;-74
2023/06/21 05:13:56;;;;;;;11.88;6.97;;;;;;;;;;4987371;28;20062;-74
2023/06/21 05:16:26;;;;;;;11.32;6.43;;;;;;;;;;4987181;28;20505;-73
2023/06/21 05:18:57;;;;;;;12.50;7.10;;;;;;;;;;4986526;28;20061;-74
2023/06/21 05:21:27;;;;;;;11.98;6.82;;;;;;;;;;4984662;28;20543;-74
2023/06/21 05:23:57;;;;;;;13.82;8.13;;;;;;;;;;4986864;28;20500;-74
2023/06/21 05:26:28;;;;;;;13.02;7.82;;;;;;;;;;4986315;28;20050;-74
2023/06/21 05:28:58;;;;;;;17.95;8.25;;;;;;;;;;4987087;28;20053;-73
2023/06/21 05:31:31;;;;;;;13.60;8.07;;;;;;;;;;4986539;28;20054;-74
2023/06/21 05:34:01;;;;;;;11.52;7.13;;;;;;;;;;4968094;28;20054;-73
2023/06/21 05:36:32;;;;;;;12.93;8.02;;;;;;;;;;4986239;28;20050;-73
2023/06/21 05:39:02;;;;;;;13.55;7.65;;;;;;;;;;4968285;28;20527;-74
2023/06/21 05:41:33;;;;;;;11.73;6.88;;;;;;;;;;4986184;28;20505;-74
2023/06/21 05:44:04;;;;;;;10.15;7.13;;;;;;;;;;4986719;28;20059;-73
2023/06/21 05:46:35;;;;;;;11.30;7.22;;;;;;;;;;4986510;28;20054;-74
2023/06/21 05:49:05;;;;;;;11.48;7.85;;;;;;;;;;4969077;28;20600;-73
2023/06/21 05:51:36;;;;;;;12.68;7.57;;;;;;;;;;4985898;28;20042;-74
2023/06/21 05:54:07;;;;;;;13.18;6.78;;;;;;;;;;4986206;28;20050;-74
2023/06/21 05:56:40;;;;;;;10.90;6.70;;;;;;;;;;4985750;28;20402;-73
2023/06/21 05:59:10;;;;;;;;;;;;;;;;;;4986561;28;20046;-74
2023/06/21 06:01:41;;;;;;;11.43;6.65;;;;;;;;;;4969059;28;19922;-74
2023/06/21 06:04:12;;;;;;;11.32;6.43;;;;;;;;;;4986425;28;20057;-74
2023/06/21 06:06:43;;;;;;;11.20;7.60;;;;;;;;;;4985709;28;20050;-74
2023/06/21 06:09:13;;;;;;;10.75;6.85;;;;;;;;;;4985775;28;20046;-74
2023/06/21 06:11:44;;;;;;;9.35;6.95;;;;;;;;;;4986695;28;20050;-74
2023/06/21 06:14:14;;;;;;;11.90;6.45;;;;;;;;;;4985546;28;20050;-73
2023/06/21 06:16:45;;;;;;;13.05;7.18;;;;;;;;;;4985989;28;20802;-74
2023/06/21 06:19:15;;;;;;;10.45;6.47;;;;;;;;;;4985808;28;20046;-75
2023/06/21 06:21:47;;;;;;;12.25;7.07;;;;;;;;;;4984214;28;20525;-74
2023/06/21 06:24:18;;;;;;;12.15;7.40;;;;;;;;;;4986422;28;20039;-73
2023/06/21 06:26:49;;;;;;;13.35;7.65;;;;;;;;;;4967626;28;20509;-74
2023/06/21 06:29:19;;;;;;;12.77;7.13;;;;;;;;;;4985529;28;20054;-74
2023/06/21 06:31:51;;;;;;;10.20;6.40;;;;;;;;;;4985572;28;20054;-73
2023/06/21 06:34:22;;;;;;;9.60;6.68;;;;;;;;;;4989143;28;20046;-74
2023/06/21 06:36:52;;;;;;;8.55;6.32;;;;;;;;;;4990259;28;20054;-74
2023/06/21 06:39:41;;;;;;;9.57;6.20;;;;;;;;;;4989976;28;20057;-74
2023/06/21 06:42:12;;;;;;;17.10;6.90;;;;;;;;;;4989844;28;20046;-73
2023/06/21 06:44:43;;;;;;;9.70;5.93;;;;;;;;;;4989524;28;20806;-74
2023/06/21 06:47:14;;;;;;;11.55;5.95;;;;;;;;;;4989432;28;20126;-74
2023/06/21 06:49:45;;;;;;;8.93;5.88;;;;;;;;;;4989442;28;20054;-73
2023/06/21 06:52:15;;;;;;;9.02;5.93;;;;;;;;;;4989136;28;20053;-73
2023/06/21 06:54:45;;;;;;;10.10;6.15;;;;;;;;;;4989540;28;20050;-74
2023/06/21 06:57:16;;;;;;;11.10;6.10;;;;;;;;;;4990043;28;20501;-74
2023/06/21 07:00:08;;;;;;;8.27;5.60;;;;;;;;;;4989083;28;20078;-73
2023/06/21 07:02:39;;;;;;;8.75;5.82;;;;;;;;;;4989458;28;20050;-73
2023/06/21 07:05:09;;;;;;;8.13;5.20;;;;;;;;;;4989320;28;20054;-74
2023/06/21 07:07:40;;;;;;;10.23;6.13;;;;;;;;;;4989258;28;20097;-74
2023/06/21 07:10:11;;;;;;;10.27;5.72;;;;;;;;;;4988928;28;20053;-73
2023/06/21 07:12:42;;;;;;;13.07;5.38;;;;;;;;;;4971359;28;20061;-74
2023/06/21 07:15:13;;;;;;;9.30;5.60;;;;;;;;;;4988747;28;20061;-74
2023/06/21 07:17:44;;;;;;;6.75;4.80;;;;;;;;;;4988939;28;20049;-74
2023/06/21 07:20:14;;;;;;;11.45;5.20;;;;;;;;;;4972225;28;20527;-73
2023/06/21 07:22:45;;;;;;;10.43;5.65;;;;;;;;;;4988558;28;20444;-73
2023/06/21 07:25:15;;;;;;;;;;;;;;;;;;4988210;28;20512;-73
2023/06/21 07:27:46;;;;;;;8.75;5.15;;;;;;;;;;4988862;28;19928;-73
2023/06/21 07:30:18;;;;;;;9.18;5.50;;;;;;;;;;4988885;28;20085;-73
2023/06/21 07:32:48;;;;;;;9.68;4.88;;;;;;;;;;4988623;28;20057;-73
2023/06/21 07:35:19;;;;;;;7.07;4.70;;;;;;;;;;4989023;28;20053;-73
2023/06/21 07:37:50;;;;;;;6.60;4.57;;;;;;;;;;4970633;28;20053;-73
2023/06/21 07:40:20;;;;;;;6.63;5.22;;;;;;;;;;4971690;28;20054;-74
2023/06/21 07:42:50;;;;;;;6.68;5.68;;;;;;;;;;4988217;28;20043;-74
2023/06/21 07:45:21;;;;;;;8.95;5.40;;;;;;;;;;4988344;28;20050;-73
2023/06/21 07:47:52;;;;;;;9.65;5.15;;;;;;;;;;4988669;28;20506;-74
2023/06/21 07:50:26;;;;;;;6.78;4.90;;;;;;;;;;4988381;28;20034;-74
2023/06/21 07:52:56;;;;;;;8.50;4.75;;;;;;;;;;4988211;28;20050;-74
2023/06/21 07:55:28;;;;;;;7.90;5.18;;;;;;;;;;4988080;28;20054;-73
2023/06/21 07:57:59;;;;;;;6.75;4.85;;;;;;;;;;4988392;28;20080;-74
2023/06/21 08:00:31;;;;;;;8.90;4.70;;;;;;;;;;4987832;28;20042;-74
2023/06/21 08:03:02;;;;;;;8.57;5.10;;;;;;;;;;4988344;28;20050;-74
2023/06/21 08:05:32;;;;;;;7.82;5.43;;;;;;;;;;4986945;28;20050;-74
2023/06/21 08:08:02;;;;;;;7.55;4.72;;;;;;;;;;4987787;28;20046;-74
2023/06/21 08:10:33;;;;;;;10.43;4.40;;;;;;;;;;4988455;28;20080;-74
2023/06/21 08:13:04;;;;;;;8.45;5.50;;;;;;;;;;4987341;28;20046;-74
2023/06/21 08:15:33;;;;;;;7.38;5.00;;;;;;;;;;4988713;28;20053;-74
2023/06/21 08:18:04;;;;;;;6.90;4.50;;;;;;;;;;4988036;28;20049;-73
2023/06/21 08:20:35;;;;;;;9.50;5.45;;;;;;;;;;4987949;28;20054;-74
2023/06/21 08:23:08;;;;;;;10.40;4.70;;;;;;;;;;4988089;28;20039;-73
2023/06/21 08:25:38;;;;;;;9.32;4.63;;;;;;;;;;4987643;28;20054;-74
2023/06/21 08:28:08;;;;;;;8.25;4.32;;;;;;;;;;4987629;28;20440;-74
2023/06/21 08:30:38;;;;;;;5.85;4.35;;;;;;;;;;4987036;28;20061;-74
2023/06/21 08:33:09;;;;;;;;;;;;;;;;;;4971054;28;20050;-74
2023/06/21 08:35:43;;;;;;;8.38;4.65;;;;;;;;;;4987556;28;20750;-74
2023/06/21 08:38:14;;;;;;;8.35;5.00;;;;;;;;;;4987890;28;20053;-73
2023/06/21 08:40:59;;;;;;;;;;;;;;;;;;4987949;28;20057;-73
2023/06/21 08:43:33;;;;;;;8.10;4.53;;;;;;;;;;4987621;28;19926;-74
2023/06/21 08:46:07;;;;;;;8.70;5.13;;;;;;;;;;4987496;28;20413;-74
2023/06/21 08:48:40;;;;;;;7.90;4.72;;;;;;;;;;4969734;28;20046;-74
2023/06/21 08:51:10;;;;;;;7.60;5.53;;;;;;;;;;4987318;28;20050;-73
2023/06/21 08:53:57;;;;;;;7.95;6.20;;;;;;;;;;4987413;28;20042;-77
2023/06/21 08:56:31;;;;;;;7.90;5.20;;;;;;;;;;4986633;28;20042;-74
2023/06/21 08:59:08;;;;;;;9.45;6.55;;;;;;;;;;4986525;28;20065;-73
2023/06/21 09:02:20;;;;;;;7.95;5.82;;;;;;;;;;4986893;28;20050;-74
2023/06/21 09:04:56;;;;;;;13.77;5.35;;;;;;;;;;4950337;28;20073;-74
2023/06/21 09:07:28;;;;;;;11.45;6.88;;;;;;;;;;4970073;28;20116;-73
2023/06/21 09:10:02;;;;;;;9.55;5.55;;;;;;;;;;4987354;28;20042;-73
2023/06/21 09:12:35;;;;;;;8.43;5.18;;;;;;;;;;4987274;28;20053;-74
2023/06/21 09:15:08;;;;;;;9.63;5.80;;;;;;;;;;4986512;28;20070;-75
2023/06/21 09:17:39;;;;;;;11.98;5.32;;;;;;;;;;4986959;28;20634;-73
2023/06/21 09:20:10;;;;;;;8.45;5.38;;;;;;;;;;4987191;28;20509;-74
2023/06/21 09:22:41;;;;;;;10.40;5.57;;;;;;;;;;4986445;28;20038;-74
2023/06/21 09:25:11;;;;;;;12.05;5.80;;;;;;;;;;4986571;28;20541;-73
2023/06/21 09:27:44;;;;;;;10.10;5.70;;;;;;;;;;4986372;28;20053;-73
2023/06/21 09:30:15;;;;;;;10.57;5.35;;;;;;;;;;4986522;28;20054;-74
2023/06/21 09:33:06;;;;;;;11.43;5.18;;;;;;;;;;4986232;28;20406;-74
2023/06/21 09:35:41;;;;;;;13.88;7.38;;;;;;;;;;4969764;28;20058;-73
2023/06/21 09:38:33;;;;;;;7.30;5.07;;;;;;;;;;4986274;28;20050;-73
2023/06/21 09:41:07;;;;;;;8.38;6.10;;;;;;;;;;4986189;28;20054;-75
2023/06/21 09:43:44;;;;;;;10.10;6.13;;;;;;;;;;4985889;28;20409;-74
2023/06/21 09:46:15;;;;;;;8.05;5.75;;;;;;;;;;4986630;28;20393;-75
2023/06/21 09:48:45;;;;;;;9.85;5.10;;;;;;;;;;4986143;28;20058;-74
2023/06/21 09:51:24;;;;;;;10.25;5.82;;;;;;;;;;4986635;28;20050;-75
2023/06/21 09:53:56;;;;;;;10.93;5.85;;;;;;;;;;4986320;28;20042;-73
2023/06/21 09:56:28;;;;;;;9.73;5.28;;;;;;;;;;4986051;28;20042;-73
2023/06/21 09:59:00;;;;;;;8.95;5.60;;;;;;;;;;4985854;28;20782;-73
2023/06/21 10:01:46;;;;;;;16.65;6.30;;;;;;;;;;4985825;28;20053;-74
2023/06/21 10:04:17;;;;;;;8.27;6.38;;;;;;;;;;4986200;28;20053;-74
2023/06/21 10:06:55;;;;;;;10.38;5.45;;;;;;;;;;4986175;28;20050;-74
2023/06/21 10:09:26;;;;;;;15.05;5.88;;;;;;;;;;4986642;28;20042;-73
2023/06/21 10:11:58;;;;;;;14.13;7.45;;;;;;;;;;4985525;28;20046;-74
2023/06/21 10:14:30;;;;;;;11.23;5.72;;;;;;;;;;4985218;28;20063;-74
2023/06/21 10:17:01;;;;;;;11.85;5.15;;;;;;;;;;4985566;28;20046;-74
2023/06/21 10:19:34;;;;;;;8.93;5.85;;;;;;;;;;4968137;28;20050;-73
2023/06/21 10:22:14;;;;;;;7.97;5.28;;;;;;;;;;4985736;28;20046;-73
2023/06/21 10:24:52;;;;;;;9.23;5.45;;;;;;;;;;4969395;28;20054;-74
2023/06/21 10:27:23;;;;;;;10.82;5.88;;;;;;;;;;4985626;28;20058;-73
2023/06/21 10:29:58;;;;;;;13.07;5.68;;;;;;;;;;4985947;28;20381;-73
2023/06/21 10:32:34;;;;;;;7.88;5.45;;;;;;;;;;4983832;28;20050;-73
2023/06/21 10:35:15;;;;;;;8.43;5.00;;;;;;;;;;4966761;28;20179;-73
2023/06/21 10:38:15;;;;;;;20.45;5.63;;;;;;;;;;4966433;28;20077;-73
2023/06/21 10:40:46;;;;;;;12.95;5.63;;;;;;;;;;4958638;28;20075;-73
2023/06/21 10:43:17;;;;;;;12.38;6.25;;;;;;;;;;4966636;28;20409;-72
2023/06/21 10:45:49;;;;;;;14.38;5.90;;;;;;;;;;4966366;28;20441;-73
2023/06/21 10:48:22;;;;;;;9.15;5.60;;;;;;;;;;4964571;28;20062;-74
2023/06/21 10:50:54;;;;;;;11.77;5.43;;;;;;;;;;4966404;28;20805;-73
2023/06/21 10:53:26;;;;;;;18.15;6.20;;;;;;;;;;4966375;28;20105;-75
2023/06/21 10:55:57;;;;;;;15.38;5.82;;;;;;;;;;4948731;28;20055;-74
2023/06/21 10:58:29;;;;;;;15.50;6.00;;;;;;;;;;4965904;28;20054;-73
2023/06/21 11:01:00;;;;;;;12.27;7.35;;;;;;;;;;4965807;28;20054;-74
2023/06/21 11:03:32;;;;;;;17.33;7.15;;;;;;;;;;4965898;28;20050;-73
2023/06/21 11:06:24;;;;;;;9.07;5.47;;;;;;;;;;4965634;28;20073;-75
2023/06/21 11:08:56;;;;;;;11.73;7.18;;;;;;;;;;4965586;28;20047;-76
2023/06/21 11:11:31;;;;;;;8.82;6.38;;;;;;;;;;4966278;28;20054;-73
2023/06/21 11:14:03;;;;;;;10.60;6.47;;;;;;;;;;4965716;28;20050;-74
2023/06/21 11:16:36;;;;;;;17.67;8.70;;;;;;;;;;4964809;28;20055;-73
2023/06/21 11:19:10;;;;;;;14.38;8.13;;;;;;;;;;4966898;28;20061;-73
2023/06/21 11:21:45;;;;;;;15.05;7.15;;;;;;;;;;4966082;28;20050;-73
2023/06/21 11:24:21;;;;;;;9.82;5.80;;;;;;;;;;4950281;29;20070;-73
2023/06/21 11:27:05;;;;;;;8.93;5.82;;;;;;;;;;4950076;29;20539;-75
2023/06/21 11:29:38;;;;;;;16.15;6.68;;;;;;;;;;4950329;29;20051;-74
2023/06/21 11:32:14;;;;;;;15.18;7.28;;;;;;;;;;4950293;29;20048;-74
2023/06/21 11:34:57;;;;;;;18.48;9.27;;;;;;;;;;4949835;29;20059;-74
2023/06/21 11:37:44;;;;;;;14.88;9.07;;;;;;;;;;4948530;29;20083;-73
2023/06/21 11:40:18;;;;;;;9.60;6.05;;;;;;;;;;4949763;29;20492;-77
2023/06/21 11:42:50;;;;;;;12.15;5.97;;;;;;;;;;4950029;29;20054;-74
2023/06/21 11:45:39;;;;;;;16.90;10.20;;;;;;;;;;4950151;29;20510;-76
2023/06/21 11:48:13;;;;;;;12.23;7.00;;;;;;;;;;4950391;29;20054;-75
2023/06/21 11:50:46;;;;;;;7.43;4.93;;;;;;;;;;4949620;29;20057;-73
2023/06/21 11:53:20;;;;;;;17.80;10.98;;;;;;;;;;4949809;29;20047;-74
2023/06/21 11:55:59;;;;;;;18.50;9.52;;;;;;;;;;4949347;29;20605;-75
2023/06/21 11:58:30;;;;;;;13.88;8.10;;;;;;;;;;4949947;29;20054;-74
2023/06/21 12:01:03;;;;;;;15.07;8.70;;;;;;;;;;4949552;29;20050;-73
2023/06/21 12:03:33;;;;;;;13.90;8.82;;;;;;;;;;4950109;29;20052;-74
2023/06/21 12:06:05;;;;;;;10.05;7.30;;;;;;;;;;4949293;29;20051;-74
2023/06/21 12:08:36;;;;;;;14.25;9.27;;;;;;;;;;4949460;29;20494;-73
2023/06/21 12:11:09;;;;;;;16.58;12.15;;;;;;;;;;4949298;29;20505;-73
2023/06/21 12:13:42;;;;;;;13.38;8.65;;;;;;;;;;4949131;28;20059;-74
2023/06/21 12:16:12;;;;;;;15.80;9.50;;;;;;;;;;4949375;29;20051;-75
2023/06/21 12:18:43;;;;;;;18.80;9.98;;;;;;;;;;4949698;29;20062;-74
2023/06/21 12:21:15;;;;;;;15.23;8.45;;;;;;;;;;4949471;29;20062;-74
2023/06/21 12:23:46;;;;;;;16.83;10.25;;;;;;;;;;4949085;29;21206;-74
2023/06/21 12:26:18;;;;;;;19.85;10.70;;;;;;;;;;4949080;29;20054;-75
2023/06/21 12:28:48;;;;;;;14.25;8.45;;;;;;;;;;4949086;29;20047;-74
2023/06/21 12:31:20;;;;;;;11.27;6.60;;;;;;;;;;4947876;28;20058;-74
2023/06/21 12:34:02;;;;;;;15.57;7.60;;;;;;;;;;4949681;29;20059;-74
2023/06/21 12:36:33;;;;;;;8.95;6.55;;;;;;;;;;4948805;29;20062;-74
2023/06/21 12:39:06;;;;;;;7.65;5.53;;;;;;;;;;4949090;29;20043;-74
2023/06/21 12:41:44;;;;;;;13.93;7.65;;;;;;;;;;4948987;29;20492;-74
2023/06/21 12:44:23;;;;;;;19.08;8.82;;;;;;;;;;4948849;29;20047;-75
2023/06/21 12:46:54;;;;;;;12.65;7.45;;;;;;;;;;4947189;29;20089;-75
2023/06/21 12:49:26;;;;;;;14.18;7.90;;;;;;;;;;4948979;29;20515;-75
2023/06/21 12:52:02;;;;;;;11.80;8.38;;;;;;;;;;4948497;29;20677;-75
2023/06/21 12:54:33;;;;;;;9.80;6.80;;;;;;;;;;4930722;29;20054;-74
2023/06/21 12:57:04;;;;;;;23.83;10.80;;;;;;;;;;4948590;29;20058;-75
2023/06/21 12:59:34;;;;;;;13.48;7.57;;;;;;;;;;4948742;29;20043;-74
2023/06/21 13:02:05;;;;;;;14.90;7.50;;;;;;;;;;4948942;29;20073;-74
2023/06/21 13:04:36;;;;;;;14.93;7.22;;;;;;;;;;4948553;29;20098;-75
2023/06/21 13:07:08;;;;;;;13.02;6.75;;;;;;;;;;4948516;29;20054;-74
2023/06/21 13:09:38;;;;;;;8.20;5.07;;;;;;;;;;4948146;29;20066;-75
2023/06/21 13:12:09;;;;;;;12.68;5.20;;;;;;;;;;4948295;29;20058;-75
2023/06/21 13:14:39;;;;;;;23.05;6.22;;;;;;;;;;4948569;28;20891;-74
2023/06/21 13:17:11;;;;;;;5.65;4.20;;;;;;;;;;4946424;29;20062;-74
2023/06/21 13:19:41;;;;;;;6.15;4.00;;;;;;;;;;4948289;29;20073;-75
2023/06/21 13:22:14;;;;;;;7.93;4.22;;;;;;;;;;4947096;29;20062;-75
2023/06/21 13:24:45;;;;;;;6.05;4.15;;;;;;;;;;4948275;29;20047;-75
2023/06/21 13:27:16;;;;;;;6.05;3.95;;;;;;;;;;4947916;29;20051;-75
2023/06/21 13:29:45;;;;;;;6.78;3.65;;;;;;;;;;4947932;29;20055;-74
2023/06/21 13:32:15;;;;;;;5.25;3.60;;;;;;;;;;4948053;29;20047;-75
2023/06/21 13:34:46;;;;;;;6.68;3.58;;;;;;;;;;4930668;29;20066;-79
2023/06/21 13:37:18;;;;;;;6.60;3.38;;;;;;;;;;4947388;29;20511;-74
2023/06/21 13:39:50;;;;;;;7.68;3.38;;;;;;;;;;4948235;29;20062;-74
2023/06/21 13:42:20;;;;;;;10.60;4.15;;;;;;;;;;4947098;28;20051;-74
2023/06/21 13:44:51;;;;;;;6.20;3.92;;;;;;;;;;4947806;29;20054;-75
2023/06/21 13:47:21;;;;;;;16.75;4.70;;;;;;;;;;4947491;29;20055;-74
2023/06/21 13:49:51;;;;;;;9.57;4.25;;;;;;;;;;4947751;29;20048;-74
2023/06/21 13:52:26;;;;;;;14.23;6.15;;;;;;;;;;4947666;29;20051;-75
2023/06/21 13:54:59;;;;;;;13.23;4.85;;;;;;;;;;4947694;29;20056;-74
2023/06/21 13:57:29;;;;;;;5.45;3.22;;;;;;;;;;4947417;29;20608;-74
2023/06/21 13:59:59;;;;;;;9.95;4.22;;;;;;;;;;4947132;29;20051;-74
2023/06/21 14:02:31;;;;;;;6.63;4.35;;;;;;;;;;4951753;28;20526;-75
2023/06/21 14:05:02;;;;;;;5.85;4.20;;;;;;;;;;4947101;29;20057;-75
2023/06/21 14:07:34;;;;;;;7.68;4.10;;;;;;;;;;4945696;29;20055;-75
2023/06/21 14:10:05;;;;;;;6.68;4.03;;;;;;;;;;4947130;29;20051;-74
2023/06/21 14:12:37;;;;;;;7.97;4.32;;;;;;;;;;4930690;29;20051;-75
2023/06/21 14:15:09;;;;;;;15.05;6.68;;;;;;;;;;4947333;29;20059;-74
2023/06/21 14:17:42;;;;;;;5.50;3.92;;;;;;;;;;4946975;29;20043;-74
2023/06/21 14:20:13;;;;;;;5.65;3.80;;;;;;;;;;4948085;29;20497;-74
2023/06/21 14:22:43;;;;;;;7.65;4.50;;;;;;;;;;4947103;29;20062;-75
2023/06/21 14:25:16;;;;;;;11.55;4.43;;;;;;;;;;4947972;29;20043;-75
2023/06/21 14:27:47;;;;;;;7.70;4.25;;;;;;;;;;4945673;29;20063;-74
2023/06/21 14:30:18;;;;;;;7.43;4.25;;;;;;;;;;4947572;29;20051;-75
2023/06/21 14:32:48;;;;;;;5.38;3.67;;;;;;;;;;4946765;29;20051;-75
2023/06/21 14:35:19;;;;;;;6.78;4.68;;;;;;;;;;4947281;29;20390;-75
2023/06/21 14:37:53;;;;;;;6.47;4.05;;;;;;;;;;4947367;29;20047;-75
2023/06/21 14:40:24;;;;;;;7.22;4.38;;;;;;;;;;4947200;29;20418;-76
2023/06/21 14:42:54;;;;;;;8.15;4.78;;;;;;;;;;4947296;29;20549;-75
2023/06/21 14:45:27;;;;;;;7.72;4.85;;;;;;;;;;4947094;29;20054;-77
2023/06/21 14:47:58;;;;;;;6.40;4.43;;;;;;;;;;4946295;29;20064;-74
2023/06/21 14:50:29;;;;;;;9.40;4.68;;;;;;;;;;4947148;29;20055;-74
2023/06/21 14:53:00;;;;;;;9.85;5.40;;;;;;;;;;4947340;28;20051;-75
2023/06/21 14:55:31;;;;;;;10.82;6.32;;;;;;;;;;4949884;29;20047;-75
2023/06/21 14:58:02;;;;;;;8.38;5.53;;;;;;;;;;4950957;29;20522;-74
2023/06/21 15:00:33;;;;;;;11.48;6.70;;;;;;;;;;4950793;29;20051;-75
2023/06/21 15:03:02;;;;;;;11.07;6.50;;;;;;;;;;4950764;29;20074;-75
2023/06/21 15:05:36;;;;;;;12.52;6.13;;;;;;;;;;4950355;29;20054;-74
2023/06/21 15:08:10;;;;;;;12.10;6.45;;;;;;;;;;4950446;29;20387;-75
2023/06/21 15:10:41;;;;;;;8.88;5.95;;;;;;;;;;4950435;29;20055;-80